createdAt,value
2023-09-08T00:00:26.487Z,91.61
2023-09-08T00:01:26.527Z,91.31
2023-09-08T00:02:26.591Z,90.97
2023-09-08T00:03:26.458Z,90.77
2023-09-08T00:04:26.483Z,90.56
2023-09-08T00:05:26.403Z,90.36
2023-09-08T00:06:26.409Z,90.36
2023-09-08T00:07:26.455Z,90.77
2023-09-08T00:08:26.363Z,91.17
2023-09-08T00:09:26.350Z,91.51
2023-09-08T00:10:26.346Z,91.61
2023-09-08T00:11:26.348Z,91.61
2023-09-08T00:12:26.347Z,92.02
2023-09-08T00:13:26.306Z,92.57
2023-09-08T00:14:26.287Z,92.46
2023-09-08T00:15:26.271Z,92.66
2023-09-08T00:16:26.443Z,92.97
2023-09-08T00:17:26.302Z,93.17
2023-09-08T00:18:26.237Z,93.62
2023-09-08T00:19:26.244Z,93.92
2023-09-08T00:20:26.215Z,93.72
2023-09-08T00:21:26.209Z,94.43
2023-09-08T00:22:26.203Z,94.12
2023-09-08T00:23:26.167Z,94.12
2023-09-08T00:24:26.154Z,94.02
2023-09-08T00:25:26.153Z,94.02
2023-09-08T00:26:26.143Z,94.23
2023-09-08T00:27:26.114Z,94.67
2023-09-08T00:28:26.099Z,94.57
2023-09-08T00:29:26.146Z,95.18
2023-09-08T00:30:26.093Z,95.28
2023-09-08T00:31:26.062Z,95.22
2023-09-08T00:32:26.287Z,95.43
2023-09-08T00:33:26.086Z,96.03
2023-09-08T00:34:26.022Z,96.03
2023-09-08T00:35:26.089Z,96.08
2023-09-08T00:36:25.995Z,96.28
2023-09-08T00:37:25.987Z,96.48
2023-09-08T00:38:26.006Z,96.18
2023-09-08T00:39:25.958Z,96.18
2023-09-08T00:40:25.959Z,96.28
2023-09-08T00:41:25.957Z,96.23
2023-09-08T00:42:25.932Z,96.13
2023-09-08T00:43:25.906Z,96.03
2023-09-08T00:44:25.895Z,96.08
2023-09-08T00:45:25.955Z,96.38
2023-09-08T00:46:25.947Z,96.48
2023-09-08T00:47:25.945Z,96.69
2023-09-08T00:48:25.924Z,96.58
2023-09-08T00:49:25.852Z,96.48
2023-09-08T00:50:25.830Z,96.48
2023-09-08T00:51:25.843Z,96.28
2023-09-08T00:52:25.792Z,96.08
2023-09-08T00:53:25.774Z,96.58
2023-09-08T00:54:25.779Z,96.69
2023-09-08T00:55:25.748Z,96.48
2023-09-08T00:56:25.771Z,96.28
2023-09-08T00:57:25.724Z,96.48
2023-09-08T00:58:25.726Z,96.58
2023-09-08T00:59:25.711Z,96.48
2023-09-08T01:00:25.682Z,96.38
2023-09-08T01:01:25.707Z,96.28
2023-09-08T01:02:25.945Z,96.38
2023-09-08T01:03:25.738Z,96.73
2023-09-08T01:04:25.781Z,97.03
2023-09-08T01:05:25.621Z,97.03
2023-09-08T01:06:25.606Z,97.44
2023-09-08T01:07:25.592Z,97.79
2023-09-08T01:08:25.599Z,97.79
2023-09-08T01:09:25.620Z,97.89
2023-09-08T01:10:25.570Z,98.29
2023-09-08T01:11:25.540Z,98.29
2023-09-08T01:12:25.570Z,98.39
2023-09-08T01:13:25.529Z,98.65
2023-09-08T01:14:25.511Z,99.05
2023-09-08T01:15:25.559Z,98.95
2023-09-08T01:16:25.507Z,98.95
2023-09-08T01:17:25.476Z,99.05
2023-09-08T01:18:25.581Z,99.15
2023-09-08T01:19:25.439Z,99.25
2023-09-08T01:20:25.446Z,99.35
2023-09-08T01:21:25.441Z,99.46
2023-09-08T01:22:25.416Z,99.55
2023-09-08T01:23:25.406Z,99.35
2023-09-08T01:24:25.405Z,99.35
2023-09-08T01:25:25.364Z,99.35
2023-09-08T01:26:25.344Z,99.35
2023-09-08T01:27:25.349Z,99.35
2023-09-08T01:28:25.357Z,99.35
2023-09-08T01:29:25.303Z,99.25
2023-09-08T01:30:25.310Z,99.05
2023-09-08T01:31:25.416Z,99.05
2023-09-08T01:32:25.291Z,98.95
2023-09-08T01:33:25.264Z,98.85
2023-09-08T01:34:25.295Z,98.95
2023-09-08T01:35:25.238Z,98.95
2023-09-08T01:36:25.249Z,99.05
2023-09-08T01:37:25.196Z,99.15
2023-09-08T01:38:25.233Z,99.25
2023-09-08T01:39:25.169Z,99.05
2023-09-08T01:40:25.167Z,99.05
2023-09-08T01:41:25.157Z,98.85
2023-09-08T01:42:25.188Z,98.85
2023-09-08T01:43:25.129Z,98.65
2023-09-08T01:44:25.155Z,98.74
2023-09-08T01:45:25.154Z,98.74
2023-09-08T01:46:25.151Z,98.74
2023-09-08T01:47:25.070Z,98.65
2023-09-08T01:48:25.056Z,98.65
2023-09-08T01:49:25.046Z,98.85
2023-09-08T01:50:25.048Z,98.74
2023-09-08T01:51:25.035Z,98.74
2023-09-08T01:52:25.031Z,98.65
2023-09-08T01:53:24.992Z,98.74
2023-09-08T01:54:24.981Z,98.74
2023-09-08T01:55:24.979Z,98.85
2023-09-08T01:56:24.966Z,98.85
2023-09-08T01:57:24.946Z,98.85
2023-09-08T01:58:24.958Z,98.85
2023-09-08T01:59:24.913Z,99.40
2023-09-08T02:00:24.978Z,99.50
2023-09-08T02:01:24.918Z,99.30
2023-09-08T02:02:24.874Z,99.60
2023-09-08T02:03:24.858Z,99.60
2023-09-08T02:04:24.940Z,99.70
2023-09-08T02:05:24.926Z,99.60
2023-09-08T02:06:24.820Z,99.70
2023-09-08T02:07:24.851Z,99.80
2023-09-08T02:08:24.817Z,99.99
2023-09-08T02:09:24.801Z,99.99
2023-09-08T02:10:24.784Z,99.99
2023-09-08T02:11:24.758Z,99.99
2023-09-08T02:12:24.745Z,99.99
2023-09-08T02:13:24.732Z,99.99
2023-09-08T02:14:24.731Z,99.99
2023-09-08T02:15:24.874Z,99.99
2023-09-08T02:16:24.757Z,99.99
2023-09-08T02:17:24.681Z,99.99
2023-09-08T02:18:24.732Z,99.99
2023-09-08T02:19:24.736Z,99.99
2023-09-08T02:20:24.642Z,99.99
2023-09-08T02:21:24.746Z,99.99
2023-09-08T02:22:24.615Z,99.99
2023-09-08T02:23:24.601Z,99.99
2023-09-08T02:24:24.683Z,99.99
2023-09-08T02:25:24.591Z,99.99
2023-09-08T02:26:24.558Z,99.99
2023-09-08T02:27:24.552Z,99.99
2023-09-08T02:28:24.589Z,99.99
2023-09-08T02:29:24.541Z,99.99
2023-09-08T02:30:24.569Z,99.99
2023-09-08T02:31:24.495Z,99.99
2023-09-08T02:32:24.486Z,99.99
2023-09-08T02:33:24.592Z,99.99
2023-09-08T02:34:24.466Z,99.99
2023-09-08T02:35:24.474Z,99.99
2023-09-08T02:36:24.431Z,99.99
2023-09-08T02:37:24.416Z,99.99
2023-09-08T02:38:24.414Z,99.99
2023-09-08T02:39:24.499Z,99.99
2023-09-08T02:40:24.405Z,99.95
2023-09-08T02:41:24.370Z,99.91
2023-09-08T02:42:24.381Z,99.99
2023-09-08T02:43:24.939Z,99.95
2023-09-08T02:44:24.323Z,99.75
2023-09-08T02:45:24.373Z,99.70
2023-09-08T02:46:24.374Z,99.70
2023-09-08T02:47:24.288Z,99.95
2023-09-08T02:48:24.329Z,99.95
2023-09-08T02:49:24.276Z,99.65
2023-09-08T02:50:24.258Z,99.55
2023-09-08T02:51:24.252Z,99.65
2023-09-08T02:52:24.235Z,99.75
2023-09-08T02:53:24.224Z,99.75
2023-09-08T02:54:24.221Z,99.65
2023-09-08T02:55:24.192Z,99.44
2023-09-08T02:56:24.190Z,99.44
2023-09-08T02:57:24.175Z,99.65
2023-09-08T02:58:24.165Z,99.75
2023-09-08T02:59:24.128Z,99.99
2023-09-08T03:00:24.118Z,99.95
2023-09-08T03:01:24.244Z,99.75
2023-09-08T03:02:24.232Z,99.95
2023-09-08T03:03:24.141Z,99.99
2023-09-08T03:04:24.067Z,99.99
2023-09-08T03:05:24.050Z,99.99
2023-09-08T03:06:24.062Z,99.99
2023-09-08T03:07:24.064Z,99.99
2023-09-08T03:08:24.016Z,99.99
2023-09-08T03:09:24.003Z,99.99
2023-09-08T03:10:23.991Z,99.99
2023-09-08T03:11:23.983Z,99.99
2023-09-08T03:12:23.982Z,99.99
2023-09-08T03:13:23.952Z,99.99
2023-09-08T03:14:23.935Z,99.99
2023-09-08T03:15:23.924Z,99.99
2023-09-08T03:16:23.950Z,99.99
2023-09-08T03:17:24.083Z,99.99
2023-09-08T03:18:23.899Z,99.99
2023-09-08T03:19:23.868Z,99.99
2023-09-08T03:20:23.871Z,99.99
2023-09-08T03:21:23.870Z,99.99
2023-09-08T03:22:23.832Z,99.99
2023-09-08T03:23:23.846Z,99.99
2023-09-08T03:24:23.817Z,99.99
2023-09-08T03:25:23.813Z,99.99
2023-09-08T03:26:23.803Z,99.99
2023-09-08T03:27:23.769Z,99.99
2023-09-08T03:28:23.773Z,99.99
2023-09-08T03:29:23.746Z,99.99
2023-09-08T03:30:23.757Z,99.99
2023-09-08T03:31:23.837Z,99.99
2023-09-08T03:32:23.819Z,99.99
2023-09-08T03:33:23.837Z,99.99
2023-09-08T03:34:23.793Z,99.99
2023-09-08T03:35:23.677Z,99.99
2023-09-08T03:36:23.666Z,99.99
2023-09-08T03:37:23.635Z,99.99
2023-09-08T03:38:23.621Z,99.99
2023-09-08T03:39:23.623Z,99.99
2023-09-08T03:40:23.671Z,99.99
2023-09-08T03:41:23.584Z,99.99
2023-09-08T03:42:23.576Z,99.99
2023-09-08T03:43:23.614Z,99.99
2023-09-08T03:44:23.583Z,99.99
2023-09-08T03:45:23.541Z,99.99
2023-09-08T03:46:23.553Z,99.99
2023-09-08T03:47:23.527Z,99.99
2023-09-08T03:48:23.493Z,99.99
2023-09-08T03:49:23.499Z,99.99
2023-09-08T03:50:23.473Z,99.99
2023-09-08T03:51:23.467Z,99.99
2023-09-08T03:52:23.441Z,99.99
2023-09-08T03:53:23.447Z,99.99
2023-09-08T03:54:23.435Z,99.99
2023-09-08T03:55:23.399Z,99.99
2023-09-08T03:56:23.423Z,99.99
2023-09-08T03:57:23.385Z,99.99
2023-09-08T03:58:23.365Z,99.99
2023-09-08T03:59:23.371Z,99.99
2023-09-08T04:00:23.536Z,99.99
2023-09-08T04:01:23.358Z,99.99
2023-09-08T04:02:23.355Z,99.99
2023-09-08T04:03:23.523Z,99.99
2023-09-08T04:04:23.316Z,99.99
2023-09-08T04:05:23.299Z,99.99
2023-09-08T04:06:25.359Z,99.99
2023-09-08T04:07:23.304Z,99.99
2023-09-08T04:08:23.349Z,99.99
2023-09-08T04:09:23.219Z,99.99
2023-09-08T04:10:23.200Z,99.99
2023-09-08T04:11:23.189Z,99.99
2023-09-08T04:12:23.169Z,99.99
2023-09-08T04:13:23.178Z,99.99
2023-09-08T04:14:23.143Z,99.99
2023-09-08T04:15:23.166Z,99.99
2023-09-08T04:16:23.202Z,99.99
2023-09-08T04:17:23.120Z,99.99
2023-09-08T04:18:23.231Z,99.99
2023-09-08T04:19:23.081Z,99.99
2023-09-08T04:20:23.071Z,99.99
2023-09-08T04:21:23.122Z,99.99
2023-09-08T04:22:23.116Z,99.99
2023-09-08T04:23:23.055Z,99.99
2023-09-08T04:24:23.068Z,99.99
2023-09-08T04:25:23.015Z,99.99
2023-09-08T04:26:22.993Z,99.99
2023-09-08T04:27:22.992Z,99.99
2023-09-08T04:28:22.976Z,99.99
2023-09-08T04:29:22.950Z,99.99
2023-09-08T04:30:23.027Z,99.99
2023-09-08T04:31:22.972Z,99.99
2023-09-08T04:32:22.949Z,99.99
2023-09-08T04:33:22.987Z,99.99
2023-09-08T04:34:22.887Z,99.99
2023-09-08T04:35:22.869Z,99.99
2023-09-08T04:36:22.854Z,99.99
2023-09-08T04:37:22.858Z,99.99
2023-09-08T04:38:22.829Z,99.99
2023-09-08T04:39:22.868Z,99.99
2023-09-08T04:40:22.808Z,99.99
2023-09-08T04:41:22.800Z,99.99
2023-09-08T04:42:22.807Z,99.99
2023-09-08T04:43:22.778Z,99.99
2023-09-08T04:44:22.754Z,99.99
2023-09-08T04:45:22.779Z,99.99
2023-09-08T04:46:22.793Z,99.99
2023-09-08T04:47:22.739Z,99.99
2023-09-08T04:48:22.780Z,99.99
2023-09-08T04:49:22.692Z,99.99
2023-09-08T04:50:22.688Z,99.99
2023-09-08T04:51:22.689Z,99.99
2023-09-08T04:52:22.653Z,99.99
2023-09-08T04:53:22.660Z,99.99
2023-09-08T04:54:22.628Z,99.99
2023-09-08T04:55:22.609Z,99.99
2023-09-08T04:56:22.642Z,99.99
2023-09-08T04:57:24.013Z,99.99
2023-09-08T04:58:22.577Z,99.99
2023-09-08T04:59:22.580Z,99.99
2023-09-08T05:00:22.599Z,99.99
2023-09-08T05:01:22.598Z,99.99
2023-09-08T05:02:22.601Z,99.99
2023-09-08T05:03:22.764Z,99.99
2023-09-08T05:04:22.590Z,99.99
2023-09-08T05:05:22.569Z,99.99
2023-09-08T05:06:22.490Z,99.99
2023-09-08T05:07:22.458Z,99.99
2023-09-08T05:08:22.486Z,99.99
2023-09-08T05:09:22.439Z,99.99
2023-09-08T05:10:22.435Z,99.99
2023-09-08T05:11:22.415Z,99.99
2023-09-08T05:12:22.392Z,99.99
2023-09-08T05:13:30.881Z,99.99
2023-09-08T05:14:22.369Z,99.99
2023-09-08T05:15:22.472Z,99.99
2023-09-08T05:16:22.345Z,99.99
2023-09-08T05:17:22.332Z,99.99
2023-09-08T05:18:22.399Z,99.99
2023-09-08T05:19:22.303Z,99.99
2023-09-08T05:20:22.331Z,99.99
2023-09-08T05:21:22.297Z,99.99
2023-09-08T05:22:22.647Z,99.99
2023-09-08T05:23:22.250Z,99.99
2023-09-08T05:24:22.339Z,99.41
2023-09-08T05:25:22.306Z,98.55
2023-09-08T05:26:22.267Z,96.38
2023-09-08T05:27:22.277Z,95.18
2023-09-08T05:28:22.212Z,92.46
2023-09-08T05:29:22.183Z,90.20
2023-09-08T05:30:22.158Z,89.70
2023-09-08T05:31:22.189Z,90.00
2023-09-08T05:32:22.145Z,88.95
2023-09-08T05:33:22.166Z,87.85
2023-09-08T05:34:22.124Z,85.46
2023-09-08T05:35:22.094Z,84.31
2023-09-08T05:36:22.095Z,82.92
2023-09-08T05:37:22.066Z,81.74
2023-09-08T05:38:22.061Z,79.96
2023-09-08T05:39:22.048Z,78.28
2023-09-08T05:40:22.050Z,76.74
2023-09-08T05:41:22.008Z,75.67
2023-09-08T05:42:21.998Z,74.56
2023-09-08T05:43:22.077Z,73.59
2023-09-08T05:44:21.999Z,72.79
2023-09-08T05:45:21.961Z,72.59
2023-09-08T05:46:21.992Z,72.26
2023-09-08T05:47:22.000Z,72.39
2023-09-08T05:48:22.004Z,72.36
2023-09-08T05:49:21.925Z,71.83
2023-09-08T05:50:21.905Z,71.22
2023-09-08T05:51:21.885Z,70.69
2023-09-08T05:52:21.933Z,70.26
2023-09-08T05:53:21.912Z,69.86
2023-09-08T05:54:21.840Z,69.23
2023-09-08T05:55:21.832Z,68.93
2023-09-08T05:56:21.837Z,68.83
2023-09-08T05:57:21.824Z,69.76
2023-09-08T05:58:21.812Z,69.53
2023-09-08T05:59:21.781Z,69.53
2023-09-08T06:00:21.772Z,71.56
2023-09-08T06:01:22.848Z,73.39
2023-09-08T06:02:21.782Z,72.96
2023-09-08T06:03:21.782Z,71.36
2023-09-08T06:04:21.757Z,70.12
2023-09-08T06:05:21.701Z,71.92
2023-09-08T06:06:21.688Z,72.92
2023-09-08T06:07:21.717Z,71.95
2023-09-08T06:08:21.680Z,73.69
2023-09-08T06:09:21.685Z,74.59
2023-09-08T06:10:21.633Z,73.52
2023-09-08T06:11:21.619Z,71.66
2023-09-08T06:12:21.648Z,70.39
2023-09-08T06:13:21.600Z,69.86
2023-09-08T06:14:21.590Z,68.70
2023-09-08T06:15:21.615Z,69.23
2023-09-08T06:16:21.597Z,69.62
2023-09-08T06:17:21.560Z,68.79
2023-09-08T06:18:21.533Z,69.43
2023-09-08T06:19:21.516Z,69.20
2023-09-08T06:20:21.518Z,68.46
2023-09-08T06:21:21.505Z,67.74
2023-09-08T06:22:21.478Z,67.97
2023-09-08T06:23:21.466Z,67.50
2023-09-08T06:24:21.469Z,66.91
2023-09-08T06:25:21.436Z,66.38
2023-09-08T06:26:21.446Z,65.82
2023-09-08T06:27:21.411Z,65.55
2023-09-08T06:28:21.393Z,65.85
2023-09-08T06:29:21.385Z,65.12
2023-09-08T06:30:21.380Z,65.09
2023-09-08T06:31:21.517Z,64.17
2023-09-08T06:32:21.339Z,63.97
2023-09-08T06:33:21.542Z,64.89
2023-09-08T06:34:21.407Z,65.75
2023-09-08T06:35:21.316Z,66.35
2023-09-08T06:36:21.327Z,65.49
2023-09-08T06:37:21.276Z,64.96
2023-09-08T06:38:21.258Z,64.99
2023-09-08T06:39:21.282Z,64.79
2023-09-08T06:40:21.267Z,64.56
2023-09-08T06:41:21.225Z,63.84
2023-09-08T06:42:21.315Z,63.31
2023-09-08T06:43:21.208Z,62.79
2023-09-08T06:44:21.188Z,62.49
2023-09-08T06:45:21.183Z,62.82
2023-09-08T06:46:21.203Z,62.59
2023-09-08T06:47:21.148Z,62.39
2023-09-08T06:48:21.173Z,62.59
2023-09-08T06:49:21.132Z,62.19
2023-09-08T06:50:21.124Z,61.57
2023-09-08T06:51:21.093Z,61.54
2023-09-08T06:52:21.083Z,61.57
2023-09-08T06:53:21.072Z,62.39
2023-09-08T06:54:21.077Z,61.87
2023-09-08T06:55:21.050Z,62.62
2023-09-08T06:56:21.068Z,64.96
2023-09-08T06:57:21.012Z,65.72
2023-09-08T06:58:21.010Z,65.39
2023-09-08T06:59:21.001Z,64.23
2023-09-08T07:00:20.978Z,63.71
2023-09-08T07:01:21.062Z,63.18
2023-09-08T07:02:21.042Z,62.66
2023-09-08T07:03:21.073Z,62.66
2023-09-08T07:04:21.147Z,62.46
2023-09-08T07:05:21.002Z,62.30
2023-09-08T07:06:20.901Z,61.88
2023-09-08T07:07:20.937Z,61.16
2023-09-08T07:08:20.936Z,61.05
2023-09-08T07:09:20.859Z,60.01
2023-09-08T07:10:20.849Z,59.71
2023-09-08T07:11:20.861Z,59.91
2023-09-08T07:12:20.853Z,59.48
2023-09-08T07:13:20.850Z,59.59
2023-09-08T07:14:20.902Z,60.24
2023-09-08T07:15:20.784Z,60.31
2023-09-08T07:16:20.891Z,60.01
2023-09-08T07:17:20.811Z,60.11
2023-09-08T07:18:20.815Z,59.46
2023-09-08T07:19:20.734Z,59.36
2023-09-08T07:20:20.720Z,59.66
2023-09-08T07:21:20.708Z,58.97
2023-09-08T07:22:20.712Z,59.56
2023-09-08T07:23:20.699Z,59.75
2023-09-08T07:24:20.670Z,59.98
2023-09-08T07:25:20.680Z,59.95
2023-09-08T07:26:20.644Z,60.05
2023-09-08T07:27:20.657Z,59.75
2023-09-08T07:28:23.570Z,59.16
2023-09-08T07:29:20.610Z,59.75
2023-09-08T07:30:20.638Z,59.11
2023-09-08T07:31:20.785Z,59.20
2023-09-08T07:32:20.579Z,59.40
2023-09-08T07:33:20.753Z,58.69
2023-09-08T07:34:20.550Z,58.69
2023-09-08T07:35:20.531Z,58.88
2023-09-08T07:36:20.566Z,59.17
2023-09-08T07:37:20.527Z,59.08
2023-09-08T07:38:20.490Z,57.87
2023-09-08T07:39:20.474Z,58.04
2023-09-08T07:40:20.466Z,58.14
2023-09-08T07:41:20.466Z,59.17
2023-09-08T07:42:20.445Z,58.85
2023-09-08T07:43:20.508Z,58.85
2023-09-08T07:44:20.723Z,58.95
2023-09-08T07:45:20.408Z,58.92
2023-09-08T07:46:20.444Z,56.69
2023-09-08T07:47:20.381Z,58.26
2023-09-08T07:48:20.538Z,58.62
2023-09-08T07:49:20.378Z,57.88
2023-09-08T07:50:20.352Z,56.99
2023-09-08T07:51:20.341Z,57.32
2023-09-08T07:52:20.322Z,57.78
2023-09-08T07:53:20.308Z,57.51
2023-09-08T07:54:20.941Z,57.42
2023-09-08T07:55:20.312Z,56.60
2023-09-08T07:56:20.279Z,55.18
2023-09-08T07:57:20.251Z,54.46
2023-09-08T07:58:20.239Z,54.44
2023-09-08T07:59:20.263Z,53.06
2023-09-08T08:00:20.299Z,52.76
2023-09-08T08:01:20.281Z,52.89
2023-09-08T08:02:20.219Z,53.53
2023-09-08T08:03:20.185Z,51.76
2023-09-08T08:04:20.255Z,52.40
2023-09-08T08:05:20.279Z,52.47
2023-09-08T08:06:20.141Z,51.44
2023-09-08T08:07:20.135Z,50.63
2023-09-08T08:08:20.162Z,51.29
2023-09-08T08:09:20.121Z,51.10
2023-09-08T08:10:20.108Z,49.90
2023-09-08T08:11:20.145Z,51.62
2023-09-08T08:12:20.080Z,50.32
2023-09-08T08:13:20.053Z,51.72
2023-09-08T08:14:20.062Z,50.27
2023-09-08T08:15:20.091Z,51.37
2023-09-08T08:16:20.133Z,52.92
2023-09-08T08:17:20.011Z,54.16
2023-09-08T08:18:20.116Z,54.16
2023-09-08T08:19:20.000Z,53.39
2023-09-08T08:20:19.972Z,51.93
2023-09-08T08:21:20.028Z,50.83
2023-09-08T08:22:19.948Z,51.32
2023-09-08T08:23:19.944Z,51.74
2023-09-08T08:24:19.946Z,52.33
2023-09-08T08:25:19.914Z,54.33
2023-09-08T08:26:19.918Z,53.61
2023-09-08T08:27:19.941Z,50.37
2023-09-08T08:28:19.895Z,50.44
2023-09-08T08:29:19.861Z,48.79
2023-09-08T08:30:19.894Z,50.88
2023-09-08T08:31:19.876Z,52.87
2023-09-08T08:32:19.852Z,51.79
2023-09-08T08:33:19.863Z,50.83
2023-09-08T08:34:19.804Z,49.68
2023-09-08T08:35:19.791Z,48.43
2023-09-08T08:36:19.806Z,49.60
2023-09-08T08:37:19.785Z,49.07
2023-09-08T08:38:19.767Z,48.99
2023-09-08T08:39:19.759Z,49.31
2023-09-08T08:40:19.749Z,50.95
2023-09-08T08:41:19.729Z,51.12
2023-09-08T08:42:19.726Z,49.51
2023-09-08T08:43:19.735Z,49.73
2023-09-08T08:44:19.687Z,50.04
2023-09-08T08:45:19.677Z,50.66
2023-09-08T08:46:19.745Z,51.05
2023-09-08T08:47:19.745Z,50.04
2023-09-08T08:48:19.707Z,50.26
2023-09-08T08:49:19.628Z,50.93
2023-09-08T08:50:19.614Z,53.96
2023-09-08T08:51:19.649Z,51.57
2023-09-08T08:52:19.600Z,50.63
2023-09-08T08:53:19.579Z,51.52
2023-09-08T08:54:19.586Z,50.32
2023-09-08T08:55:19.553Z,50.37
2023-09-08T08:56:19.572Z,51.18
2023-09-08T08:57:19.567Z,52.68
2023-09-08T08:58:19.539Z,53.79
2023-09-08T08:59:19.506Z,56.04
2023-09-08T09:00:19.635Z,54.88
2023-09-08T09:01:19.520Z,53.94
2023-09-08T09:02:19.504Z,52.78
2023-09-08T09:03:19.527Z,51.72
2023-09-08T09:04:19.535Z,50.39
2023-09-08T09:05:19.444Z,49.68
2023-09-08T09:06:19.443Z,48.86
2023-09-08T09:07:19.430Z,51.57
2023-09-08T09:08:19.429Z,52.53
2023-09-08T09:09:19.613Z,51.47
2023-09-08T09:10:19.407Z,51.64
2023-09-08T09:11:19.413Z,53.34
2023-09-08T09:12:19.363Z,52.09
2023-09-08T09:13:19.347Z,52.92
2023-09-08T09:14:19.336Z,54.16
2023-09-08T09:15:19.336Z,53.30
2023-09-08T09:16:19.334Z,53.39
2023-09-08T09:17:19.299Z,55.79
2023-09-08T09:18:19.382Z,54.26
2023-09-08T09:19:19.277Z,52.80
2023-09-08T09:20:19.338Z,51.18
2023-09-08T09:21:19.254Z,53.25
2023-09-08T09:22:19.247Z,54.16
2023-09-08T09:23:19.236Z,53.42
2023-09-08T09:24:20.956Z,53.05
2023-09-08T09:25:19.318Z,51.50
2023-09-08T09:26:19.254Z,50.19
2023-09-08T09:27:19.237Z,50.51
2023-09-08T09:28:19.181Z,50.29
2023-09-08T09:29:19.181Z,48.89
2023-09-08T09:30:19.218Z,50.71
2023-09-08T09:31:19.181Z,49.92
2023-09-08T09:32:19.223Z,52.73
2023-09-08T09:33:19.178Z,52.33
2023-09-08T09:34:19.145Z,53.22
2023-09-08T09:35:19.107Z,52.26
2023-09-08T09:36:19.118Z,51.25
2023-09-08T09:37:19.084Z,50.56
2023-09-08T09:38:19.067Z,52.95
2023-09-08T09:39:19.071Z,52.38
2023-09-08T09:40:19.092Z,50.90
2023-09-08T09:41:19.024Z,49.70
2023-09-08T09:42:19.025Z,49.19
2023-09-08T09:43:19.041Z,50.61
2023-09-08T09:44:19.013Z,51.25
2023-09-08T09:45:18.982Z,49.82
2023-09-08T09:46:19.031Z,48.94
2023-09-08T09:47:18.960Z,51.77
2023-09-08T09:48:18.997Z,53.08
2023-09-08T09:49:19.006Z,52.80
2023-09-08T09:50:18.931Z,51.64
2023-09-08T09:51:18.917Z,50.78
2023-09-08T09:52:18.952Z,51.05
2023-09-08T09:53:18.923Z,48.96
2023-09-08T09:54:18.884Z,49.08
2023-09-08T09:55:18.877Z,50.54
2023-09-08T09:56:18.859Z,50.98
2023-09-08T09:57:18.843Z,49.92
2023-09-08T09:58:18.861Z,50.44
2023-09-08T09:59:18.829Z,50.14
2023-09-08T10:00:18.839Z,52.01
2023-09-08T10:01:18.812Z,52.04
2023-09-08T10:02:18.832Z,52.21
2023-09-08T10:03:18.875Z,51.93
2023-09-08T10:04:18.768Z,49.26
2023-09-08T10:05:18.750Z,50.85
2023-09-08T10:06:18.798Z,50.37
2023-09-08T10:07:18.750Z,51.79
2023-09-08T10:08:18.774Z,52.38
2023-09-08T10:09:18.709Z,52.21
2023-09-08T10:10:18.704Z,52.06
2023-09-08T10:11:18.683Z,50.21
2023-09-08T10:12:18.713Z,50.93
2023-09-08T10:13:18.661Z,51.50
2023-09-08T10:14:18.663Z,49.77
2023-09-08T10:15:18.677Z,49.58
2023-09-08T10:16:18.655Z,48.74
2023-09-08T10:17:18.629Z,47.99
2023-09-08T10:18:18.670Z,47.45
2023-09-08T10:19:18.598Z,46.11
2023-09-08T10:20:18.584Z,47.60
2023-09-08T10:21:18.590Z,48.30
2023-09-08T10:22:18.614Z,47.89
2023-09-08T10:23:18.557Z,46.33
2023-09-08T10:24:18.622Z,45.87
2023-09-08T10:25:18.526Z,44.71
2023-09-08T10:26:18.536Z,42.74
2023-09-08T10:27:18.529Z,43.32
2023-09-08T10:28:18.498Z,45.40
2023-09-08T10:29:18.480Z,45.69
2023-09-08T10:30:18.477Z,48.50
2023-09-08T10:31:18.570Z,48.28
2023-09-08T10:32:18.491Z,48.55
2023-09-08T10:33:18.531Z,46.69
2023-09-08T10:34:18.432Z,45.55
2023-09-08T10:35:18.453Z,46.47
2023-09-08T10:36:18.482Z,47.03
2023-09-08T10:37:18.431Z,45.84
2023-09-08T10:38:18.385Z,44.92
2023-09-08T10:39:18.377Z,46.36
2023-09-08T10:40:18.430Z,45.46
2023-09-08T10:41:18.627Z,43.23
2023-09-08T10:42:18.346Z,41.42
2023-09-08T10:43:18.332Z,41.38
2023-09-08T10:44:18.471Z,41.24
2023-09-08T10:45:18.326Z,40.42
2023-09-08T10:46:18.323Z,38.85
2023-09-08T10:47:18.283Z,38.25
2023-09-08T10:48:18.292Z,38.83
2023-09-08T10:49:18.276Z,38.45
2023-09-08T10:50:18.270Z,40.95
2023-09-08T10:51:18.249Z,43.95
2023-09-08T10:52:18.260Z,43.26
2023-09-08T10:53:18.266Z,46.11
2023-09-08T10:54:18.214Z,46.17
2023-09-08T10:55:18.217Z,43.54
2023-09-08T10:56:18.572Z,42.49
2023-09-08T10:57:18.208Z,41.16
2023-09-08T10:58:18.165Z,40.33
2023-09-08T10:59:18.228Z,38.93
2023-09-08T11:00:18.166Z,40.72
2023-09-08T11:01:18.145Z,41.69
2023-09-08T11:02:18.125Z,41.79
2023-09-08T11:03:18.184Z,43.49
2023-09-08T11:04:18.258Z,42.94
2023-09-08T11:05:18.092Z,40.81
2023-09-08T11:06:18.128Z,39.49
2023-09-08T11:07:18.092Z,39.34
2023-09-08T11:08:18.094Z,38.85
2023-09-08T11:09:18.075Z,38.99
2023-09-08T11:10:18.033Z,40.29
2023-09-08T11:11:18.086Z,40.97
2023-09-08T11:12:18.040Z,42.00
2023-09-08T11:13:18.009Z,43.80
2023-09-08T11:14:18.106Z,43.82
2023-09-08T11:15:17.985Z,44.09
2023-09-08T11:16:18.034Z,45.67
2023-09-08T11:17:17.974Z,45.72
2023-09-08T11:18:18.045Z,45.18
2023-09-08T11:19:17.954Z,45.02
2023-09-08T11:20:17.959Z,43.02
2023-09-08T11:21:17.918Z,43.38
2023-09-08T11:22:17.911Z,44.66
2023-09-08T11:23:17.909Z,48.15
2023-09-08T11:24:17.882Z,48.49
2023-09-08T11:25:17.897Z,48.35
2023-09-08T11:26:17.871Z,47.00
2023-09-08T11:27:17.855Z,47.16
2023-09-08T11:28:17.943Z,46.25
2023-09-08T11:29:17.839Z,44.98
2023-09-08T11:30:17.820Z,45.73
2023-09-08T11:31:17.853Z,46.78
2023-09-08T11:32:17.828Z,46.64
2023-09-08T11:33:17.808Z,44.42
2023-09-08T11:34:17.799Z,45.81
2023-09-08T11:35:17.785Z,46.56
2023-09-08T11:36:18.462Z,47.08
2023-09-08T11:37:17.760Z,46.01
2023-09-08T11:38:17.731Z,46.61
2023-09-08T11:39:17.739Z,47.08
2023-09-08T11:40:17.744Z,46.98
2023-09-08T11:41:17.703Z,46.56
2023-09-08T11:42:17.712Z,46.61
2023-09-08T11:43:17.676Z,45.98
2023-09-08T11:44:17.831Z,45.20
2023-09-08T11:45:17.653Z,43.77
2023-09-08T11:46:17.709Z,44.69
2023-09-08T11:47:17.653Z,46.00
2023-09-08T11:48:17.620Z,47.52
2023-09-08T11:49:17.658Z,48.21
2023-09-08T11:50:17.593Z,49.13
2023-09-08T11:51:17.594Z,47.37
2023-09-08T11:52:17.597Z,46.81
2023-09-08T11:53:17.571Z,45.03
2023-09-08T11:54:17.554Z,45.72
2023-09-08T11:55:17.749Z,44.44
2023-09-08T11:56:17.558Z,45.42
2023-09-08T11:57:17.549Z,46.11
2023-09-08T11:58:17.521Z,44.87
2023-09-08T11:59:17.506Z,43.69
2023-09-08T12:00:17.526Z,46.10
2023-09-08T12:01:17.517Z,47.17
2023-09-08T12:02:17.475Z,46.08
2023-09-08T12:03:17.728Z,45.88
2023-09-08T12:04:17.512Z,45.93
2023-09-08T12:05:17.473Z,46.42
2023-09-08T12:06:17.433Z,45.43
2023-09-08T12:07:17.406Z,43.27
2023-09-08T12:08:17.393Z,43.92
2023-09-08T12:09:17.378Z,43.78
2023-09-08T12:10:17.371Z,42.91
2023-09-08T12:11:17.372Z,41.32
2023-09-08T12:12:17.342Z,41.34
2023-09-08T12:13:17.336Z,42.96
2023-09-08T12:14:17.334Z,42.65
2023-09-08T12:15:17.399Z,44.84
2023-09-08T12:16:17.371Z,44.12
2023-09-08T12:17:17.338Z,44.12
2023-09-08T12:18:17.334Z,44.94
2023-09-08T12:19:17.293Z,45.45
2023-09-08T12:20:17.280Z,45.14
2023-09-08T12:21:17.259Z,43.73
2023-09-08T12:22:17.273Z,43.49
2023-09-08T12:23:17.226Z,42.53
2023-09-08T12:24:17.207Z,41.18
2023-09-08T12:25:17.234Z,40.11
2023-09-08T12:26:17.193Z,38.43
2023-09-08T12:27:17.256Z,37.90
2023-09-08T12:28:17.197Z,38.00
2023-09-08T12:29:17.153Z,40.11
2023-09-08T12:30:17.162Z,41.44
2023-09-08T12:31:17.233Z,41.20
2023-09-08T12:32:17.174Z,41.43
2023-09-08T12:33:17.179Z,40.21
2023-09-08T12:34:17.121Z,41.01
2023-09-08T12:35:17.104Z,41.53
2023-09-08T12:36:17.078Z,39.62
2023-09-08T12:37:17.111Z,40.69
2023-09-08T12:38:17.066Z,40.31
2023-09-08T12:39:17.043Z,40.19
2023-09-08T12:40:17.062Z,40.00
2023-09-08T12:41:17.021Z,39.90
2023-09-08T12:42:17.008Z,40.66
2023-09-08T12:43:22.370Z,41.34
2023-09-08T12:44:17.001Z,41.20
2023-09-08T12:45:16.990Z,41.05
2023-09-08T12:46:16.986Z,39.34
2023-09-08T12:47:16.957Z,38.37
2023-09-08T12:48:16.958Z,38.99
2023-09-08T12:49:16.946Z,40.60
2023-09-08T12:50:16.913Z,40.44
2023-09-08T12:51:16.909Z,38.89
2023-09-08T12:52:16.890Z,40.83